Time;durP1;ratioP1;P1;durP2;ratioP2;P2;SDS_P1;SDS_P2;PMS_P1;PMS_P2;Temp;Humidity;BMP_temperature;BMP_pressure;BME280_temperature;BME280_humidity;BME280_pressure;Samples;Min_cycle;Max_cycle;Signal;HPM_P1;HPM_P2
2021/12/08 00:00:57;;;;;;;5.65;1.77;;;2.40;99.90;;;1.58;82.44;95756.63;5031255;28;20105;-45
2021/12/08 00:03:28;;;;;;;3.05;1.45;;;2.50;99.90;;;1.64;81.42;95746.06;5031200;28;20025;-48
2021/12/08 00:05:54;;;;;;;4.53;1.63;;;2.50;99.90;;;1.59;79.11;95750.53;5028304;28;20033;-47
2021/12/08 00:08:23;;;;;;;2.53;1.42;;;2.50;99.90;;;1.67;79.87;95749.44;5021069;28;20402;-46
2021/12/08 00:13:36;;;;;;;4.97;1.77;;;2.60;99.90;;;1.68;77.98;95748.53;4965410;28;20132;-46
2021/12/08 00:16:11;;;;;;;5.97;1.63;;;2.60;99.90;;;1.80;78.77;95743.88;5019035;28;20036;-46
2021/12/08 00:18:44;;;;;;;3.78;1.65;;;2.60;99.90;;;1.80;80.48;95746.50;5014277;28;20482;-40
2021/12/08 00:21:10;;;;;;;;;;;2.70;99.90;;;1.81;80.46;95737.78;5028784;28;20034;-49
2021/12/08 00:23:36;;;;;;;3.15;1.77;;;2.70;99.90;;;1.81;80.28;95740.38;5032435;28;19912;-46
2021/12/08 00:26:03;;;;;;;3.60;1.77;;;2.70;99.90;;;1.79;79.68;95740.41;5025836;28;20506;-45
2021/12/08 00:28:29;;;;;;;3.55;1.80;;;2.70;99.90;;;1.86;80.01;95736.75;5030245;28;20454;-46
2021/12/08 00:30:59;;;;;;;2.92;1.50;;;2.70;99.90;;;1.87;81.16;95737.63;5031572;28;20029;-37
2021/12/08 00:33:30;;;;;;;3.55;1.58;;;2.70;99.90;;;1.79;79.49;95740.41;5031947;28;20479;-43
2021/12/08 00:35:59;;;;;;;3.72;1.27;;;2.70;99.90;;;1.93;79.24;95732.22;5027677;28;20112;-46
2021/12/08 00:38:25;;;;;;;3.13;1.42;;;2.70;99.90;;;1.87;79.21;95729.81;5032083;28;20407;-41
2021/12/08 00:40:52;;;;;;;6.38;1.35;;;2.70;99.90;;;1.88;79.73;95729.78;5029418;28;20028;-45
2021/12/08 00:43:19;;;;;;;4.40;1.23;;;2.70;99.90;;;1.87;80.66;95727.22;5028958;28;20035;-43
2021/12/08 00:45:46;;;;;;;4.18;1.35;;;2.80;99.90;;;1.81;80.44;95725.66;5029894;28;20498;-46
2021/12/08 00:48:12;;;;;;;3.33;1.50;;;2.70;99.90;;;1.80;80.79;95707.50;5029277;28;20040;-45
2021/12/08 00:50:39;;;;;;;3.80;1.45;;;2.70;99.90;;;1.78;81.44;95702.34;5028212;28;20041;-44
2021/12/08 00:53:06;;;;;;;4.25;1.23;;;2.60;99.90;;;1.73;82.88;95708.59;5026296;28;20045;-46
2021/12/08 00:55:32;;;;;;;3.55;1.42;;;2.60;99.90;;;1.65;83.88;95709.66;5014003;28;20099;-45
2021/12/08 00:57:58;;;;;;;1.70;1.20;;;2.60;99.90;;;1.69;84.92;95706.06;5032164;28;20049;-43
2021/12/08 01:00:31;;;;;;;2.53;1.42;;;2.50;99.90;;;1.43;88.22;95665.22;5032928;28;20485;-49
2021/12/08 01:02:58;;;;;;;2.53;1.35;;;2.50;99.90;;;1.56;90.22;95701.25;5032049;28;20383;-45
2021/12/08 01:05:29;;;;;;;2.90;1.65;;;2.50;99.90;;;1.45;93.18;95710.19;5032455;28;20030;-48
2021/12/08 01:07:56;;;;;;;5.03;1.50;;;2.40;99.90;;;1.60;93.97;95708.06;5032471;28;20025;-46
2021/12/08 01:10:25;;;;;;;3.17;1.20;;;2.30;99.90;;;1.38;95.18;95720.81;5030450;28;20086;-44
2021/12/08 01:12:53;;;;;;;3.90;1.20;;;2.30;99.90;;;1.28;98.78;95712.44;5031033;28;20117;-46
2021/12/08 01:15:21;;;;;;;2.50;1.13;;;2.20;99.90;;;1.22;99.84;95713.47;5034353;28;20139;-45
2021/12/08 01:17:47;;;;;;;2.92;1.42;;;2.10;99.90;;;1.20;100.00;95714.38;5036552;28;20501;-41
2021/12/08 01:20:16;;;;;;;3.45;1.30;;;2.10;99.90;;;1.12;100.00;95722.38;5032155;28;20029;-45
2021/12/08 01:22:43;;;;;;;2.03;1.08;;;2.00;99.90;;;1.07;100.00;95721.66;5036982;28;20036;-46
2021/12/08 01:25:09;;;;;;;2.03;1.30;;;1.90;99.90;;;0.94;100.00;95721.97;5016535;28;20277;-45
2021/12/08 01:27:35;;;;;;;3.22;1.40;;;1.90;99.90;;;0.95;100.00;95726.28;5037333;28;20037;-40
2021/12/08 01:30:05;;;;;;;3.88;1.50;;;1.80;99.90;;;0.93;100.00;95722.00;5026396;28;20040;-45
2021/12/08 01:32:31;;;;;;;3.25;1.20;;;1.80;99.90;;;0.97;100.00;95725.34;5038018;28;20033;-48
2021/12/08 01:34:57;;;;;;;3.53;1.50;;;1.80;99.90;;;0.97;100.00;95730.56;5034864;28;20079;-46
2021/12/08 01:37:23;;;;;;;2.88;1.20;;;1.80;99.90;;;0.92;100.00;95725.50;5034823;28;20021;-47
2021/12/08 01:39:49;;;;;;;3.58;1.35;;;1.80;99.90;;;0.91;100.00;95716.84;5035435;28;20048;-42
2021/12/08 01:42:18;;;;;;;3.25;1.60;;;1.80;99.90;;;0.94;100.00;95711.56;5034176;28;20192;-45
2021/12/08 01:47:30;;;;;;;2.83;1.10;;;1.80;99.90;;;0.93;100.00;95709.88;5035299;28;20090;-50
2021/12/08 01:49:56;;;;;;;1.98;1.30;;;1.80;99.90;;;0.95;100.00;95691.66;5030662;28;20049;-41
2021/12/08 01:52:22;;;;;;;4.95;1.25;;;1.80;99.90;;;0.88;100.00;95693.59;5031470;28;20433;-47
2021/12/08 01:54:48;;;;;;;2.15;1.15;;;1.80;99.90;;;0.91;100.00;95693.47;5030982;28;20021;-44
2021/12/08 01:57:14;;;;;;;3.67;1.10;;;1.80;99.90;;;0.87;100.00;95691.88;5034559;28;20348;-47
2021/12/08 01:59:40;;;;;;;2.13;1.17;;;1.80;99.90;;;0.83;100.00;95695.44;5032824;28;20542;-45
2021/12/08 02:02:06;;;;;;;3.63;1.30;;;1.80;99.90;;;0.82;100.00;95693.72;5029349;28;20037;-44
2021/12/08 02:04:32;;;;;;;1.63;1.30;;;1.70;99.90;;;0.81;100.00;95694.63;5030817;28;20371;-45
2021/12/08 02:07:00;;;;;;;3.03;1.30;;;1.70;99.90;;;0.81;100.00;95694.63;5032969;28;20124;-46
2021/12/08 02:09:25;;;;;;;5.35;1.50;;;1.70;99.90;;;0.88;100.00;95705.69;5033741;28;20038;-44
2021/12/08 02:11:55;;;;;;;3.28;1.10;;;1.80;99.90;;;0.95;100.00;95700.31;5030912;28;20290;-47
2021/12/08 02:14:21;;;;;;;2.20;1.20;;;1.80;99.90;;;0.97;100.00;95699.41;5030428;28;20036;-44
2021/12/08 02:16:53;;;;;;;2.08;1.10;;;1.80;99.90;;;1.05;100.00;95694.88;5030173;28;20037;-41
2021/12/08 02:19:19;;;;;;;;;;;1.90;99.90;;;1.09;100.00;95688.69;5031860;28;20033;-44
2021/12/08 02:21:51;;;;;;;2.75;1.00;;;2.00;99.90;;;1.11;100.00;95690.38;5034418;28;19947;-47
2021/12/08 02:24:18;;;;;;;4.47;1.20;;;2.00;99.90;;;1.09;100.00;95686.09;5025036;28;20657;-44
2021/12/08 02:26:50;;;;;;;2.47;1.17;;;2.00;99.90;;;1.12;100.00;95693.81;5022926;28;20653;-46
2021/12/08 02:29:32;;;;;;;1.52;1.10;;;2.00;99.90;;;1.16;100.00;95698.03;5023561;28;20048;-45
2021/12/08 02:32:09;;;;;;;2.20;1.25;;;2.00;99.90;;;1.17;100.00;95698.88;5022091;28;20033;-45
2021/12/08 02:48:34;;;;;;;6.70;1.40;;;2.20;99.90;;;1.29;100.00;95699.41;5031681;28;20499;-46
2021/12/08 02:51:00;;;;;;;2.97;1.20;;;2.20;99.90;;;1.31;100.00;95686.34;5026430;28;20025;-45
2021/12/08 02:53:26;;;;;;;2.33;1.10;;;2.20;99.90;;;1.33;100.00;95695.81;5030741;28;20040;-43
2021/12/08 02:55:52;;;;;;;2.28;1.30;;;2.20;99.90;;;1.24;100.00;95696.09;5028407;28;20036;-45
2021/12/08 02:58:18;;;;;;;3.10;1.60;;;2.10;99.90;;;1.24;100.00;95685.69;5030064;28;20116;-44
2021/12/08 03:00:57;;;;;;;1.77;1.20;;;2.10;99.90;;;1.28;100.00;95682.09;5030388;28;20025;-46
2021/12/08 03:03:24;;;;;;;3.42;1.27;;;2.10;99.90;;;1.29;100.00;95672.56;5030630;28;20123;-45
2021/12/08 03:05:50;;;;;;;2.33;1.48;;;2.20;99.90;;;1.32;100.00;95662.09;5033886;28;20049;-45
2021/12/08 03:08:15;;;;;;;2.40;1.40;;;2.20;99.90;;;1.29;100.00;95657.84;5030639;28;20430;-43
2021/12/08 03:10:46;;;;;;;3.55;1.67;;;2.20;99.90;;;1.29;100.00;95659.59;5014546;28;20033;-45
2021/12/08 03:13:12;;;;;;;3.70;1.50;;;2.20;99.90;;;1.29;100.00;95673.44;5032983;28;20036;-44
2021/12/08 03:15:38;;;;;;;2.50;1.50;;;2.20;99.90;;;1.28;100.00;95674.31;5031407;28;20453;-46
2021/12/08 03:18:05;;;;;;;2.28;1.40;;;2.20;99.90;;;1.21;100.00;95669.34;5029767;28;20032;-44
2021/12/08 03:20:41;;;;;;;1.95;1.33;;;2.10;99.90;;;1.24;100.00;95671.84;5031749;28;20037;-43
2021/12/08 03:23:12;;;;;;;3.63;1.52;;;2.10;99.90;;;1.24;100.00;95679.63;5030488;28;20044;-43
2021/12/08 03:25:42;;;;;;;2.55;1.67;;;2.10;99.90;;;1.24;100.00;95688.28;5032969;28;20071;-43
2021/12/08 03:28:17;;;;;;;2.85;1.50;;;2.10;99.90;;;1.26;100.00;95675.28;5031161;28;20280;-46
2021/12/08 03:31:07;;;;;;;3.45;1.50;;;2.10;99.90;;;1.26;100.00;95677.88;5033231;28;20402;-42
2021/12/08 03:33:34;;;;;;;2.45;1.45;;;2.10;99.90;;;1.28;100.00;95679.50;5029046;28;20029;-46
2021/12/08 03:36:00;;;;;;;4.28;1.58;;;2.10;99.90;;;1.30;100.00;95674.28;5032400;28;20478;-44
2021/12/08 03:38:26;;;;;;;2.10;1.35;;;2.20;99.90;;;1.38;100.00;95680.09;5034731;28;20025;-46
2021/12/08 03:40:53;;;;;;;3.72;1.60;;;2.20;99.90;;;1.39;100.00;95670.56;5031100;28;20259;-45
2021/12/08 03:43:20;;;;;;;2.53;1.40;;;2.20;99.90;;;1.45;100.00;95680.78;5032204;28;20451;-40
2021/12/08 03:45:49;;;;;;;2.67;1.50;;;2.30;99.90;;;1.46;100.00;95666.91;5030936;28;20526;-46
2021/12/08 03:48:27;;;;;;;3.53;1.25;;;2.30;99.90;;;1.49;100.00;95669.41;5033111;28;20079;-45
2021/12/08 03:50:54;;;;;;;4.80;2.08;;;2.30;99.90;;;1.49;100.00;95665.06;5031883;28;20036;-45
2021/12/08 03:53:21;;;;;;;3.50;1.60;;;2.40;99.90;;;1.50;100.00;95669.34;5029678;28;20032;-45
2021/12/08 03:55:50;;;;;;;3.65;1.77;;;2.40;99.90;;;1.54;100.00;95667.53;5028114;28;20453;-43
2021/12/08 03:58:20;;;;;;;2.30;1.42;;;2.40;99.90;;;1.54;100.00;95675.31;5033240;28;20035;-45
2021/12/08 04:00:49;;;;;;;4.15;2.00;;;2.40;99.90;;;1.57;100.00;95669.19;5029621;28;20223;-43
2021/12/08 04:03:15;;;;;;;2.80;1.90;;;2.40;99.90;;;1.58;100.00;95665.69;5032506;28;20028;-44
2021/12/08 04:05:54;;;;;;;3.38;1.80;;;2.40;99.90;;;1.64;100.00;95660.31;5033407;28;20030;-45
2021/12/08 04:08:31;;;;;;;3.63;2.13;;;2.50;99.90;;;1.62;100.00;95669.91;5030628;28;20086;-46
2021/12/08 04:10:59;;;;;;;3.72;1.98;;;2.50;99.90;;;1.63;100.00;95674.19;5030124;28;20045;-45
2021/12/08 04:13:34;;;;;;;2.80;1.60;;;2.50;99.90;;;1.62;100.00;95668.16;5033170;28;20041;-47
2021/12/08 04:16:01;;;;;;;3.13;1.95;;;2.50;99.90;;;1.64;100.00;95674.16;5032491;28;20388;-45
2021/12/08 04:18:27;;;;;;;4.45;2.10;;;2.50;99.90;;;1.67;100.00;95676.69;5032730;28;20059;-44
2021/12/08 04:20:57;;;;;;;3.13;1.80;;;2.50;99.90;;;1.74;100.00;95676.47;5030668;28;20037;-45
2021/12/08 04:23:27;;;;;;;3.83;1.98;;;2.60;99.90;;;1.75;100.00;95686.00;5029628;28;20034;-46
2021/12/08 04:26:00;;;;;;;3.15;1.90;;;2.60;99.90;;;1.78;100.00;95678.97;5029991;28;20148;-46
2021/12/08 04:28:30;;;;;;;4.93;2.10;;;2.60;99.90;;;1.82;100.00;95677.97;5032335;28;20119;-44
2021/12/08 04:31:18;;;;;;;5.85;2.42;;;2.60;99.90;;;1.83;100.00;95673.59;5030425;28;20083;-47
2021/12/08 04:33:53;;;;;;;5.43;2.22;;;2.70;99.90;;;1.88;100.00;95679.50;5029204;28;20025;-45
2021/12/08 04:36:24;;;;;;;3.60;2.28;;;2.70;99.90;;;1.92;100.00;95678.56;5030680;28;20047;-45
2021/12/08 04:38:55;;;;;;;4.13;2.28;;;2.70;99.90;;;1.91;100.00;95677.69;5032636;28;20379;-43
2021/12/08 04:41:35;;;;;;;3.50;2.42;;;2.80;99.90;;;1.95;100.00;95677.59;5026317;28;20083;-45
2021/12/08 04:47:19;;;;;;;3.33;2.47;;;2.80;99.90;;;1.99;100.00;95685.25;5025490;28;20036;-44
2021/12/08 04:53:00;;;;;;;4.78;2.50;;;2.80;99.90;;;1.96;100.00;95672.34;5027399;28;20029;-47
2021/12/08 05:01:28;;;;;;;4.80;2.72;;;2.90;99.90;;;2.18;100.00;95669.06;5028837;28;20044;-45
2021/12/08 05:09:48;;;;;;;4.95;2.72;;;3.00;99.90;;;2.26;100.00;95672.28;5009092;28;20308;-44
2021/12/08 05:12:31;;;;;;;4.05;2.75;;;3.10;99.90;;;2.28;100.00;95676.53;5025080;28;20040;-45
2021/12/08 05:15:12;;;;;;;3.53;2.45;;;3.10;99.90;;;2.27;100.00;95681.78;5030315;28;20116;-45
2021/12/08 05:18:23;;;;;;;5.03;2.70;;;3.10;99.90;;;2.30;100.00;95684.31;5027752;28;20095;-46
2021/12/08 05:20:53;;;;;;;5.22;3.03;;;3.10;99.90;;;2.29;100.00;95685.19;5029548;28;20034;-47
2021/12/08 05:24:00;;;;;;;7.82;3.28;;;3.10;99.90;;;2.29;100.00;95686.03;5026840;28;20362;-45
2021/12/08 05:26:34;;;;;;;5.82;3.20;;;3.10;99.90;;;2.27;100.00;95689.59;5018531;28;20525;-42
2021/12/08 05:29:26;;;;;;;8.48;3.33;;;3.10;99.90;;;2.28;100.00;95692.16;5032575;28;20387;-44
2021/12/08 05:31:55;;;;;;;4.97;3.22;;;3.10;99.90;;;2.27;100.00;95690.44;5023565;28;20068;-42
2021/12/08 05:34:21;;;;;;;5.30;2.92;;;3.10;99.90;;;2.28;100.00;95692.16;5027995;28;20116;-47
2021/12/08 05:36:48;;;;;;;6.60;3.38;;;3.10;99.90;;;2.36;100.00;95693.66;5022798;28;20033;-46
2021/12/08 05:39:20;;;;;;;5.82;3.35;;;3.20;99.90;;;2.36;100.00;95694.50;5024436;28;20044;-44
2021/12/08 05:41:50;;;;;;;6.03;3.53;;;3.20;99.90;;;2.37;100.00;95703.13;5021619;28;20405;-46
2021/12/08 05:44:17;;;;;;;4.72;3.22;;;3.20;99.90;;;2.40;100.00;95693.50;5027548;28;20054;-42
2021/12/08 05:46:47;;;;;;;3.65;2.92;;;3.20;99.90;;;2.46;100.00;95697.66;5023201;28;20040;-46
2021/12/08 05:49:17;;;;;;;4.93;3.50;;;3.30;99.90;;;2.44;100.00;95697.72;5027308;28;20473;-46
2021/12/08 05:51:45;;;;;;;5.20;3.33;;;3.30;99.90;;;2.48;100.00;95703.69;5022310;28;20036;-45
2021/12/08 05:54:19;;;;;;;5.10;3.25;;;3.30;99.90;;;2.56;100.00;95691.25;5029251;28;20258;-47
2021/12/08 05:56:48;;;;;;;8.40;3.72;;;3.40;99.90;;;2.52;100.00;95678.41;5021536;28;20025;-45
2021/12/08 05:59:16;;;;;;;4.53;3.53;;;3.40;99.90;;;2.60;100.00;95671.19;5008158;28;20038;-47
2021/12/08 06:01:54;;;;;;;6.55;3.63;;;3.40;99.90;;;2.65;100.00;95658.88;5026780;28;20453;-45
2021/12/08 06:04:24;;;;;;;7.95;3.70;;;3.50;99.90;;;2.62;100.00;95670.25;5027986;28;20037;-45
2021/12/08 06:06:50;;;;;;;5.70;3.42;;;3.40;99.90;;;2.64;100.00;95688.41;5029512;28;20044;-48
2021/12/08 06:09:19;;;;;;;7.30;3.67;;;3.40;99.90;;;2.62;100.00;95685.84;5029533;28;20033;-47
2021/12/08 06:11:47;;;;;;;5.78;3.53;;;3.50;99.90;;;2.64;100.00;95678.84;5027686;28;20741;-46
2021/12/08 06:14:15;;;;;;;6.28;3.85;;;3.50;99.90;;;2.66;100.00;95673.59;5028173;28;20033;-44
2021/12/08 06:16:43;;;;;;;5.82;3.83;;;3.50;99.90;;;2.67;100.00;95680.47;5028215;28;20021;-45
2021/12/08 06:19:12;;;;;;;7.68;4.28;;;3.50;99.90;;;2.70;100.00;95682.16;5010872;28;20079;-46
2021/12/08 06:21:40;;;;;;;5.13;2.97;;;3.50;99.90;;;2.73;100.00;95666.41;5027011;28;20384;-44
2021/12/08 06:24:11;;;;;;;6.75;4.07;;;3.50;99.90;;;2.70;100.00;95656.13;5027609;28;20033;-46
2021/12/08 06:26:40;;;;;;;6.35;3.83;;;3.50;99.90;;;2.72;100.00;95649.09;5026350;28;20045;-48
2021/12/08 06:29:08;;;;;;;6.30;4.00;;;3.50;99.90;;;2.73;100.00;95649.06;5028936;28;20192;-48
2021/12/08 06:31:37;;;;;;;6.47;3.63;;;3.50;99.90;;;2.75;100.00;95638.59;5027954;28;20033;-47
2021/12/08 06:34:04;;;;;;;7.05;3.80;;;3.60;99.90;;;2.75;100.00;95630.78;5028963;28;21036;-46
2021/12/08 06:36:40;;;;;;;7.53;4.07;;;3.50;99.90;;;2.82;100.00;95646.13;5024670;28;20061;-46
2021/12/08 06:39:12;;;;;;;7.70;3.92;;;3.60;99.90;;;2.81;100.00;95639.22;5027734;28;20495;-44
2021/12/08 06:41:45;;;;;;;5.70;3.38;;;3.60;99.90;;;2.81;100.00;95636.63;5028856;28;20092;-46
2021/12/08 06:44:20;;;;;;;6.18;4.00;;;3.60;99.90;;;2.74;100.00;95650.75;5028956;28;20037;-46
2021/12/08 06:46:47;;;;;;;8.25;4.55;;;3.60;99.90;;;2.82;100.00;95653.09;5029398;28;20041;-46
2021/12/08 06:49:16;;;;;;;5.75;3.85;;;3.60;99.90;;;2.80;100.00;95655.75;5027787;28;20067;-47
2021/12/08 06:51:57;;;;;;;6.95;4.20;;;3.60;99.90;;;2.81;100.00;95654.84;5027373;28;20025;-48
2021/12/08 06:54:32;;;;;;;8.48;4.30;;;3.60;99.90;;;2.82;100.00;95653.09;5027932;28;20116;-46
2021/12/08 06:57:08;;;;;;;4.93;3.67;;;3.60;99.90;;;2.84;100.00;95651.28;5028219;28;20021;-44
2021/12/08 06:59:44;;;;;;;8.13;4.10;;;3.60;99.90;;;2.90;100.00;95652.84;5007824;28;20835;-48
2021/12/08 07:02:19;;;;;;;5.53;4.32;;;3.60;99.90;;;2.89;100.00;95653.72;5028426;28;20103;-47
2021/12/08 07:05:08;;;;;;;7.68;4.10;;;3.70;99.90;;;2.81;100.00;95664.41;5027574;28;20040;-43
2021/12/08 07:07:34;;;;;;;6.65;4.28;;;3.60;99.90;;;2.83;100.00;95668.66;5026389;28;20111;-46
2021/12/08 07:10:21;;;;;;;5.95;4.13;;;3.60;99.90;;;2.85;100.00;95681.63;5026901;28;20107;-40
2021/12/08 07:13:07;;;;;;;6.32;4.55;;;3.60;99.90;;;2.80;100.00;95692.19;5025743;28;20053;-46
2021/12/08 07:16:01;;;;;;;10.70;4.80;;;3.60;99.90;;;2.75;100.00;95694.09;5029200;28;20033;-43
2021/12/08 07:18:39;;;;;;;5.90;4.20;;;3.60;99.90;;;2.79;100.00;95687.03;5031449;28;20415;-46
2021/12/08 07:21:10;;;;;;;12.85;5.15;;;3.50;99.90;;;2.72;100.00;95693.34;5034249;28;20025;-45
2021/12/08 07:23:46;;;;;;;6.67;4.10;;;3.60;99.90;;;2.68;100.00;95695.22;5032351;28;20080;-44
2021/12/08 07:26:22;;;;;;;7.85;4.50;;;3.50;99.90;;;2.75;100.00;95696.72;5030061;28;20294;-46
2021/12/08 07:28:51;;;;;;;9.32;4.90;;;3.60;99.90;;;2.75;100.00;95696.72;5033456;28;20041;-47
2021/12/08 07:31:25;;;;;;;6.15;4.45;;;3.50;99.90;;;2.73;100.00;95690.72;5033721;28;20021;-47
2021/12/08 07:33:52;;;;;;;7.82;4.43;;;3.60;99.90;;;2.74;100.00;95694.16;5032549;28;20032;-46
2021/12/08 07:36:20;;;;;;;9.00;4.45;;;3.60;99.90;;;2.75;100.00;95670.69;5030693;28;20029;-48
2021/12/08 07:38:54;;;;;;;7.15;4.40;;;3.60;99.90;;;2.74;100.00;95684.59;5029850;28;20033;-45
2021/12/08 07:41:32;;;;;;;6.05;3.92;;;3.60;99.90;;;2.74;100.00;95668.97;5031792;28;20033;-45
2021/12/08 07:44:05;;;;;;;6.93;3.97;;;3.60;99.90;;;2.77;100.00;95663.66;5033750;28;20075;-43
2021/12/08 07:46:46;;;;;;;5.78;4.35;;;3.60;99.90;;;2.79;100.00;95664.44;5032726;28;20113;-47
2021/12/08 07:49:25;;;;;;;5.63;4.00;;;3.60;99.90;;;2.81;100.00;95657.44;5033242;28;20345;-47
2021/12/08 07:52:02;;;;;;;7.97;4.18;;;3.60;99.90;;;2.86;100.00;95657.28;5033687;28;20029;-46
2021/12/08 07:54:31;;;;;;;6.10;3.97;;;3.60;99.90;;;2.90;100.00;95660.66;5029584;28;20033;-43
2021/12/08 07:57:04;;;;;;;5.60;3.83;;;3.70;99.90;;;2.91;100.00;95660.59;5032700;28;20053;-46
2021/12/08 07:59:31;;;;;;;5.70;4.40;;;3.70;99.90;;;2.92;100.00;95656.22;5029760;28;20041;-46
2021/12/08 08:02:06;;;;;;;6.03;3.88;;;3.70;99.90;;;2.93;100.00;95660.53;5014042;28;20050;-44
2021/12/08 08:04:37;;;;;;;5.05;3.95;;;3.70;99.90;;;2.94;100.00;95672.66;5031911;28;20037;-42
2021/12/08 08:07:05;;;;;;;6.00;4.13;;;3.70;99.90;;;2.94;100.00;95670.03;5034914;28;20083;-38
2021/12/08 08:09:37;;;;;;;6.35;3.95;;;3.70;99.90;;;2.95;100.00;95677.81;5030422;28;20124;-46
2021/12/08 08:12:09;;;;;;;8.23;4.30;;;3.70;99.90;;;2.99;100.00;95675.94;5033956;28;20024;-46
2021/12/08 08:14:40;;;;;;;5.38;3.40;;;3.80;99.90;;;3.00;100.00;95675.06;5030475;28;20033;-46
2021/12/08 08:17:16;;;;;;;5.07;3.97;;;3.80;99.90;;;3.07;100.00;95668.72;5033247;28;20025;-48
2021/12/08 08:19:45;;;;;;;5.78;3.50;;;3.80;99.90;;;3.14;100.00;95675.41;5031864;28;20323;-49
2021/12/08 08:22:28;;;;;;;5.30;3.45;;;3.90;99.90;;;3.15;100.00;95671.91;5030748;28;20048;-46
2021/12/08 08:24:57;;;;;;;6.28;3.78;;;3.90;99.90;;;3.20;100.00;95669.97;5031751;28;20033;-47
2021/12/08 08:27:25;;;;;;;5.10;3.53;;;4.00;99.90;;;3.19;100.00;95670.03;5013661;28;20403;-47
2021/12/08 08:29:54;;;;;;;4.93;3.30;;;4.00;99.90;;;3.22;100.00;95680.34;5028866;28;20043;-45
2021/12/08 08:32:28;;;;;;;4.20;3.00;;;4.00;99.90;;;3.26;100.00;95681.94;5032282;28;20163;-49
2021/12/08 08:35:09;;;;;;;3.95;3.35;;;4.00;99.90;;;3.29;100.00;95699.22;5029494;28;20324;-48
2021/12/08 08:37:35;;;;;;;3.95;2.90;;;4.10;99.90;;;3.29;100.00;95686.19;5030671;28;20112;-47
2021/12/08 08:40:10;;;;;;;6.47;3.28;;;4.10;99.90;;;3.39;100.00;95682.34;5030533;28;20039;-47
2021/12/08 08:42:40;;;;;;;4.03;3.00;;;4.20;99.90;;;3.40;100.00;95689.25;5031183;28;20029;-46
2021/12/08 08:45:30;;;;;;;5.13;3.05;;;4.20;99.90;;;3.44;100.00;95680.44;5029911;28;20184;-46
2021/12/08 08:48:04;;;;;;;5.38;3.33;;;4.20;99.90;;;3.42;100.00;95674.41;5030978;28;20025;-46
2021/12/08 08:50:40;;;;;;;4.20;3.47;;;4.20;99.90;;;3.45;100.00;95671.72;5032192;28;20095;-46
2021/12/08 08:53:07;;;;;;;4.80;3.35;;;4.20;99.90;;;3.47;100.00;95666.44;5012562;28;20108;-49
2021/12/08 08:56:01;;;;;;;7.25;3.65;;;4.20;99.90;;;3.49;100.00;95667.25;5030875;28;20443;-46
2021/12/08 08:58:30;;;;;;;5.40;3.60;;;4.30;99.90;;;3.48;100.00;95679.41;5030172;28;20043;-48
2021/12/08 09:01:13;;;;;;;6.75;4.13;;;4.30;99.90;;;3.47;100.00;95695.13;5033246;28;20025;-46
2021/12/08 09:03:43;;;;;;;7.47;4.35;;;4.30;99.90;;;3.41;100.00;95697.03;5031895;28;20025;-46
2021/12/08 09:06:33;;;;;;;6.05;3.60;;;4.30;99.90;;;3.48;100.00;95702.00;5030328;28;20025;-47
2021/12/08 09:09:05;;;;;;;5.22;3.05;;;4.30;99.90;;;3.52;100.00;95704.47;5033004;28;20087;-47
2021/12/08 09:11:39;;;;;;;4.07;2.97;;;4.30;99.90;;;3.56;100.00;95708.66;5033227;28;20473;-49
2021/12/08 09:14:11;;;;;;;4.90;3.20;;;4.30;99.90;;;3.59;100.00;95721.56;5013810;28;20249;-46
2021/12/08 09:16:58;;;;;;;4.25;3.03;;;4.30;99.90;;;3.67;100.00;95717.84;5031151;28;20487;-43
2021/12/08 09:19:36;;;;;;;5.07;3.50;;;4.40;99.90;;;3.70;100.00;95712.53;5030713;28;20026;-48
2021/12/08 09:22:07;;;;;;;4.57;2.83;;;4.50;99.90;;;3.71;100.00;95720.25;5016266;28;20052;-48
2021/12/08 09:24:48;;;;;;;4.73;2.77;;;4.50;99.90;;;3.76;100.00;95725.31;5030988;28;20453;-44
2021/12/08 09:27:26;;;;;;;3.35;2.65;;;4.50;99.90;;;3.78;100.00;95716.53;5029695;28;20163;-48
2021/12/08 09:29:58;;;;;;;4.75;3.00;;;4.50;99.90;;;3.77;100.00;95712.22;5031811;28;20065;-46
2021/12/08 09:32:34;;;;;;;;;;;4.50;99.90;;;3.78;100.00;95721.75;5031584;28;20069;-46
2021/12/08 09:35:17;;;;;;;4.72;3.00;;;4.50;99.90;;;3.79;100.00;95717.41;5034436;28;19961;-43
2021/12/08 09:37:50;;;;;;;4.75;2.72;;;4.50;99.90;;;3.84;100.00;95720.69;5032960;28;20560;-49
2021/12/08 09:40:33;;;;;;;4.15;2.90;;;4.60;99.90;;;3.90;100.00;95725.66;5030766;28;20109;-45
2021/12/08 09:43:08;;;;;;;4.05;2.60;;;4.60;99.90;;;3.94;100.00;95722.03;5033786;28;20422;-45
2021/12/08 09:45:47;;;;;;;4.38;2.70;;;4.60;99.90;;;3.97;100.00;95708.03;5033370;28;20111;-48
2021/12/08 09:48:14;;;;;;;4.22;3.22;;;4.70;99.90;;;3.98;100.00;95691.47;5034142;28;20029;-46
2021/12/08 09:50:41;;;;;;;6.18;3.13;;;4.70;99.90;;;4.02;100.00;95700.88;5018570;28;20125;-46
2021/12/08 09:53:08;;;;;;;4.82;2.78;;;4.70;99.90;;;4.04;100.00;95704.28;5033698;28;20365;-46
2021/12/08 09:55:35;;;;;;;4.35;2.63;;;4.70;99.90;;;4.06;100.00;95704.22;5034062;28;20106;-46
2021/12/08 09:58:03;;;;;;;5.20;2.95;;;4.80;99.90;;;4.06;100.00;95696.41;5033739;28;20034;-47
2021/12/08 10:00:35;;;;;;;4.45;2.80;;;4.80;99.90;;;4.09;100.00;95698.88;5031639;28;20075;-48
2021/12/08 10:03:05;;;;;;;3.70;2.97;;;4.80;99.90;;;4.04;100.00;95688.63;5034927;28;20056;-47
2021/12/08 10:05:34;;;;;;;6.05;3.00;;;4.80;99.90;;;4.12;100.00;95696.16;5035080;28;20480;-46
2021/12/08 10:08:03;;;;;;;4.28;3.20;;;4.80;99.90;;;4.06;100.00;95685.97;5037494;28;20025;-47
2021/12/08 10:10:29;;;;;;;6.43;3.00;;;4.80;99.90;;;4.13;100.00;95688.28;5034053;28;20621;-47
2021/12/08 10:12:56;;;;;;;4.43;3.00;;;4.80;99.90;;;4.15;100.00;95688.22;5039314;28;20025;-46
2021/12/08 10:15:24;;;;;;;4.20;2.65;;;4.80;99.90;;;4.17;100.00;95691.63;5034723;28;20025;-48
2021/12/08 10:17:51;;;;;;;5.22;3.00;;;4.90;99.90;;;4.16;100.00;95695.13;5037111;28;20033;-48
2021/12/08 10:20:26;;;;;;;4.18;3.00;;;4.90;99.90;;;4.16;100.00;95680.34;5032197;28;20398;-48
2021/12/08 10:23:35;;;;;;;5.72;2.95;;;4.80;99.90;;;4.13;100.00;95684.81;5035223;28;20033;-46
2021/12/08 10:26:12;;;;;;;8.40;3.30;;;4.80;99.90;;;4.10;100.00;95695.38;5037022;28;20376;-41
2021/12/08 10:28:51;;;;;;;5.50;2.78;;;4.80;99.90;;;4.11;100.00;95691.81;5033018;28;20033;-45
2021/12/08 10:31:45;;;;;;;4.97;3.08;;;4.80;99.90;;;4.04;100.00;95682.53;5034571;28;20021;-48
2021/12/08 10:36:57;;;;;;;3.30;2.55;;;4.80;99.90;;;4.11;100.00;95677.06;5033538;28;20114;-44
2021/12/08 10:39:25;;;;;;;4.50;2.75;;;4.80;99.90;;;4.17;100.00;95681.19;5034781;28;20490;-44
2021/12/08 10:42:17;;;;;;;4.55;3.22;;;4.80;99.90;;;4.22;100.00;95668.81;5034270;28;20040;-45
2021/12/08 10:47:37;;;;;;;5.32;2.95;;;4.90;99.90;;;4.32;100.00;95659.69;5032832;28;20036;-43
2021/12/08 10:56:13;;;;;;;3.53;2.47;;;5.10;99.90;;;4.55;100.00;95650.06;5036083;28;20200;-45
2021/12/08 10:58:50;;;;;;;4.95;2.85;;;5.20;99.90;;;4.61;100.00;95648.97;5018552;28;20670;-47
2021/12/08 11:01:25;;;;;;;5.00;2.70;;;5.30;99.90;;;4.61;100.00;95652.41;5033955;28;20043;-45
2021/12/08 11:04:04;;;;;;;8.07;3.15;;;5.30;99.90;;;4.59;100.00;95630.75;5057952;22;20025;-40
2021/12/08 11:06:37;;;;;;;2.58;2.35;;;5.30;99.90;;;4.65;100.00;95640.97;5021257;28;20049;-40
2021/12/08 11:09:06;;;;;;;;;;;5.40;99.90;;;4.75;100.00;95644.84;4987661;28;20033;-42
2021/12/08 11:11:35;;;;;;;3.75;2.50;;;5.40;99.90;;;4.83;100.00;95641.94;5022244;28;19917;-39
2021/12/08 11:14:05;;;;;;;5.60;2.75;;;5.50;99.90;;;4.88;100.00;95629.56;5018183;28;20632;-39
2021/12/08 11:16:33;;;;;;;3.83;2.60;;;5.50;99.90;;;4.95;100.00;95633.59;5004710;28;20117;-40
2021/12/08 11:19:14;;;;;;;2.70;2.33;;;5.60;99.90;;;4.99;100.00;95634.31;5004204;28;20414;-39
2021/12/08 11:21:57;;;;;;;5.07;2.28;;;5.70;99.90;;;5.01;100.00;95635.09;5003193;28;20443;-39
2021/12/08 11:24:34;;;;;;;3.45;2.10;;;5.70;99.90;;;4.92;100.00;95633.72;5004330;28;20653;-39
2021/12/08 11:27:07;;;;;;;3.20;1.90;;;5.70;99.90;;;4.92;100.00;95620.66;5004229;28;20041;-40
2021/12/08 11:29:39;;;;;;;2.25;1.90;;;5.60;99.90;;;4.91;100.00;95631.16;5003124;28;20022;-40
2021/12/08 11:32:10;;;;;;;3.25;1.88;;;5.60;99.90;;;4.90;100.00;95626.84;5003886;28;20135;-41
2021/12/08 11:34:43;;;;;;;2.63;1.92;;;5.60;99.90;;;4.90;100.00;95617.25;5003639;28;20483;-40
2021/12/08 11:37:15;;;;;;;2.45;1.73;;;5.60;99.90;;;4.95;100.00;95606.59;5003364;28;20049;-42